sensor_id;sensor_type;location;lat;lon;timestamp;P1;durP1;ratioP1;P2;durP2;ratioP2
6860;SDS011;3469;47.060;15.460;2023-06-24T00:00:10;12.17;;;10.43;;
6860;SDS011;3469;47.060;15.460;2023-06-24T00:02:42;15.10;;;10.63;;
6860;SDS011;3469;47.060;15.460;2023-06-24T00:05:12;14.23;;;10.10;;
6860;SDS011;3469;47.060;15.460;2023-06-24T00:07:40;13.67;;;9.83;;
6860;SDS011;3469;47.060;15.460;2023-06-24T00:10:14;14.00;;;10.20;;
6860;SDS011;3469;47.060;15.460;2023-06-24T00:12:44;11.50;;;9.93;;
6860;SDS011;3469;47.060;15.460;2023-06-24T00:15:14;11.20;;;9.57;;
6860;SDS011;3469;47.060;15.460;2023-06-24T00:17:43;14.37;;;11.67;;
6860;SDS011;3469;47.060;15.460;2023-06-24T00:20:11;15.33;;;11.33;;
6860;SDS011;3469;47.060;15.460;2023-06-24T00:22:41;15.77;;;11.40;;
6860;SDS011;3469;47.060;15.460;2023-06-24T00:25:11;15.17;;;12.90;;
6860;SDS011;3469;47.060;15.460;2023-06-24T00:27:41;13.27;;;10.57;;
6860;SDS011;3469;47.060;15.460;2023-06-24T00:30:10;18.47;;;11.77;;
6860;SDS011;3469;47.060;15.460;2023-06-24T00:32:39;17.43;;;11.37;;
6860;SDS011;3469;47.060;15.460;2023-06-24T00:35:08;20.83;;;11.10;;
6860;SDS011;3469;47.060;15.460;2023-06-24T00:37:37;17.67;;;11.93;;
6860;SDS011;3469;47.060;15.460;2023-06-24T00:40:06;11.30;;;10.10;;
6860;SDS011;3469;47.060;15.460;2023-06-24T00:42:38;14.23;;;11.07;;
6860;SDS011;3469;47.060;15.460;2023-06-24T00:45:08;12.63;;;10.33;;
6860;SDS011;3469;47.060;15.460;2023-06-24T00:47:37;15.00;;;11.63;;
6860;SDS011;3469;47.060;15.460;2023-06-24T00:50:07;15.07;;;10.97;;
6860;SDS011;3469;47.060;15.460;2023-06-24T00:52:38;11.10;;;10.00;;
6860;SDS011;3469;47.060;15.460;2023-06-24T00:55:09;12.67;;;9.90;;
6860;SDS011;3469;47.060;15.460;2023-06-24T00:57:39;12.80;;;11.13;;
6860;SDS011;3469;47.060;15.460;2023-06-24T01:00:10;13.20;;;10.10;;
6860;SDS011;3469;47.060;15.460;2023-06-24T01:02:41;12.83;;;10.47;;
6860;SDS011;3469;47.060;15.460;2023-06-24T01:05:09;15.30;;;11.27;;
6860;SDS011;3469;47.060;15.460;2023-06-24T01:07:38;14.10;;;11.30;;
6860;SDS011;3469;47.060;15.460;2023-06-24T01:10:07;10.93;;;9.30;;
6860;SDS011;3469;47.060;15.460;2023-06-24T01:12:37;14.80;;;9.77;;
6860;SDS011;3469;47.060;15.460;2023-06-24T01:15:08;10.70;;;9.20;;
6860;SDS011;3469;47.060;15.460;2023-06-24T01:17:39;14.20;;;10.37;;
6860;SDS011;3469;47.060;15.460;2023-06-24T01:20:14;15.43;;;9.60;;
6860;SDS011;3469;47.060;15.460;2023-06-24T01:22:53;13.97;;;11.20;;
6860;SDS011;3469;47.060;15.460;2023-06-24T01:25:41;13.07;;;10.50;;
6860;SDS011;3469;47.060;15.460;2023-06-24T01:28:43;12.27;;;10.43;;
6860;SDS011;3469;47.060;15.460;2023-06-24T01:31:38;13.53;;;10.67;;
6860;SDS011;3469;47.060;15.460;2023-06-24T01:34:10;15.03;;;9.90;;
6860;SDS011;3469;47.060;15.460;2023-06-24T01:36:46;12.03;;;10.27;;
6860;SDS011;3469;47.060;15.460;2023-06-24T01:39:17;13.13;;;10.37;;
6860;SDS011;3469;47.060;15.460;2023-06-24T01:41:49;15.57;;;10.57;;
6860;SDS011;3469;47.060;15.460;2023-06-24T01:44:19;14.10;;;10.80;;
6860;SDS011;3469;47.060;15.460;2023-06-24T01:46:49;11.20;;;9.00;;
6860;SDS011;3469;47.060;15.460;2023-06-24T01:49:20;17.23;;;11.00;;
6860;SDS011;3469;47.060;15.460;2023-06-24T01:51:49;15.10;;;11.20;;
6860;SDS011;3469;47.060;15.460;2023-06-24T01:54:18;16.10;;;12.10;;
6860;SDS011;3469;47.060;15.460;2023-06-24T01:56:47;17.90;;;13.67;;
6860;SDS011;3469;47.060;15.460;2023-06-24T01:59:17;15.07;;;11.20;;
6860;SDS011;3469;47.060;15.460;2023-06-24T02:01:46;16.07;;;12.40;;
6860;SDS011;3469;47.060;15.460;2023-06-24T02:04:18;14.43;;;11.87;;
6860;SDS011;3469;47.060;15.460;2023-06-24T02:06:48;14.53;;;10.33;;
6860;SDS011;3469;47.060;15.460;2023-06-24T02:09:17;16.13;;;11.13;;
6860;SDS011;3469;47.060;15.460;2023-06-24T02:11:46;19.10;;;10.87;;
6860;SDS011;3469;47.060;15.460;2023-06-24T02:14:15;21.87;;;12.10;;
6860;SDS011;3469;47.060;15.460;2023-06-24T02:16:44;17.17;;;12.80;;
6860;SDS011;3469;47.060;15.460;2023-06-24T02:19:13;18.10;;;12.57;;
6860;SDS011;3469;47.060;15.460;2023-06-24T02:21:45;14.60;;;11.87;;
6860;SDS011;3469;47.060;15.460;2023-06-24T02:24:14;17.73;;;13.07;;
6860;SDS011;3469;47.060;15.460;2023-06-24T02:26:43;16.60;;;12.07;;
6860;SDS011;3469;47.060;15.460;2023-06-24T02:29:12;16.20;;;12.17;;
6860;SDS011;3469;47.060;15.460;2023-06-24T02:31:41;16.37;;;12.47;;
6860;SDS011;3469;47.060;15.460;2023-06-24T02:34:09;16.80;;;12.87;;
6860;SDS011;3469;47.060;15.460;2023-06-24T02:36:38;17.80;;;12.43;;
6860;SDS011;3469;47.060;15.460;2023-06-24T02:39:08;15.10;;;12.53;;
6860;SDS011;3469;47.060;15.460;2023-06-24T02:41:37;17.90;;;13.37;;
6860;SDS011;3469;47.060;15.460;2023-06-24T02:44:06;18.43;;;12.40;;
6860;SDS011;3469;47.060;15.460;2023-06-24T02:46:34;20.73;;;12.70;;
6860;SDS011;3469;47.060;15.460;2023-06-24T02:49:04;18.77;;;13.37;;
6860;SDS011;3469;47.060;15.460;2023-06-24T02:51:33;20.00;;;13.77;;
6860;SDS011;3469;47.060;15.460;2023-06-24T02:54:01;18.30;;;13.00;;
6860;SDS011;3469;47.060;15.460;2023-06-24T02:56:51;20.37;;;14.73;;
6860;SDS011;3469;47.060;15.460;2023-06-24T02:59:30;21.40;;;13.80;;
6860;SDS011;3469;47.060;15.460;2023-06-24T03:02:00;22.07;;;13.93;;
6860;SDS011;3469;47.060;15.460;2023-06-24T03:04:29;21.23;;;15.00;;
6860;SDS011;3469;47.060;15.460;2023-06-24T03:06:57;17.87;;;14.00;;
6860;SDS011;3469;47.060;15.460;2023-06-24T03:09:27;21.10;;;13.93;;
6860;SDS011;3469;47.060;15.460;2023-06-24T03:11:57;21.30;;;14.90;;
6860;SDS011;3469;47.060;15.460;2023-06-24T03:14:35;21.03;;;15.37;;
6860;SDS011;3469;47.060;15.460;2023-06-24T03:17:04;26.67;;;15.90;;
6860;SDS011;3469;47.060;15.460;2023-06-24T03:19:32;20.33;;;14.20;;
6860;SDS011;3469;47.060;15.460;2023-06-24T03:22:00;18.60;;;13.90;;
6860;SDS011;3469;47.060;15.460;2023-06-24T03:24:29;27.03;;;16.40;;
6860;SDS011;3469;47.060;15.460;2023-06-24T03:26:59;18.43;;;15.53;;
6860;SDS011;3469;47.060;15.460;2023-06-24T03:29:36;19.70;;;14.70;;
6860;SDS011;3469;47.060;15.460;2023-06-24T03:32:11;16.70;;;12.80;;
6860;SDS011;3469;47.060;15.460;2023-06-24T03:34:39;19.40;;;13.90;;
6860;SDS011;3469;47.060;15.460;2023-06-24T03:37:09;20.43;;;13.83;;
6860;SDS011;3469;47.060;15.460;2023-06-24T03:39:40;19.23;;;13.33;;
6860;SDS011;3469;47.060;15.460;2023-06-24T03:42:10;19.43;;;14.33;;
6860;SDS011;3469;47.060;15.460;2023-06-24T03:44:38;20.83;;;13.73;;
6860;SDS011;3469;47.060;15.460;2023-06-24T03:47:07;22.00;;;15.77;;
6860;SDS011;3469;47.060;15.460;2023-06-24T03:49:35;19.47;;;15.33;;
6860;SDS011;3469;47.060;15.460;2023-06-24T03:52:04;23.23;;;16.80;;
6860;SDS011;3469;47.060;15.460;2023-06-24T03:54:36;24.50;;;16.77;;
6860;SDS011;3469;47.060;15.460;2023-06-24T03:57:05;26.47;;;17.80;;
6860;SDS011;3469;47.060;15.460;2023-06-24T03:59:36;24.90;;;17.00;;
6860;SDS011;3469;47.060;15.460;2023-06-24T04:02:05;24.83;;;18.20;;
6860;SDS011;3469;47.060;15.460;2023-06-24T04:04:35;29.53;;;17.80;;
6860;SDS011;3469;47.060;15.460;2023-06-24T04:07:04;28.70;;;19.23;;
6860;SDS011;3469;47.060;15.460;2023-06-24T04:09:33;25.23;;;20.13;;
6860;SDS011;3469;47.060;15.460;2023-06-24T04:12:02;24.30;;;17.93;;
6860;SDS011;3469;47.060;15.460;2023-06-24T04:14:34;25.97;;;17.30;;
6860;SDS011;3469;47.060;15.460;2023-06-24T04:17:05;24.63;;;17.10;;
6860;SDS011;3469;47.060;15.460;2023-06-24T04:19:33;22.33;;;16.63;;
6860;SDS011;3469;47.060;15.460;2023-06-24T04:22:01;20.10;;;16.00;;
6860;SDS011;3469;47.060;15.460;2023-06-24T04:24:30;18.77;;;16.33;;
6860;SDS011;3469;47.060;15.460;2023-06-24T04:26:58;18.87;;;14.20;;
6860;SDS011;3469;47.060;15.460;2023-06-24T04:29:27;14.43;;;12.80;;
6860;SDS011;3469;47.060;15.460;2023-06-24T04:31:55;17.10;;;14.60;;
6860;SDS011;3469;47.060;15.460;2023-06-24T04:34:25;17.40;;;14.63;;
6860;SDS011;3469;47.060;15.460;2023-06-24T04:36:54;18.83;;;13.37;;
6860;SDS011;3469;47.060;15.460;2023-06-24T04:39:22;14.43;;;12.43;;
6860;SDS011;3469;47.060;15.460;2023-06-24T04:41:50;17.07;;;13.63;;
6860;SDS011;3469;47.060;15.460;2023-06-24T04:44:19;14.67;;;13.13;;
6860;SDS011;3469;47.060;15.460;2023-06-24T04:46:47;17.97;;;12.70;;
6860;SDS011;3469;47.060;15.460;2023-06-24T04:49:15;13.13;;;11.80;;
6860;SDS011;3469;47.060;15.460;2023-06-24T04:51:45;12.80;;;11.43;;
6860;SDS011;3469;47.060;15.460;2023-06-24T04:54:13;12.70;;;10.23;;
6860;SDS011;3469;47.060;15.460;2023-06-24T04:56:41;11.53;;;10.43;;
6860;SDS011;3469;47.060;15.460;2023-06-24T04:59:14;10.00;;;9.00;;
6860;SDS011;3469;47.060;15.460;2023-06-24T05:01:43;10.33;;;9.33;;
6860;SDS011;3469;47.060;15.460;2023-06-24T05:04:11;12.07;;;9.37;;
6860;SDS011;3469;47.060;15.460;2023-06-24T05:06:39;10.93;;;8.40;;
6860;SDS011;3469;47.060;15.460;2023-06-24T05:09:09;10.67;;;9.57;;
6860;SDS011;3469;47.060;15.460;2023-06-24T05:11:40;10.53;;;8.43;;
6860;SDS011;3469;47.060;15.460;2023-06-24T05:14:08;9.40;;;8.40;;
6860;SDS011;3469;47.060;15.460;2023-06-24T05:16:39;10.17;;;9.10;;
6860;SDS011;3469;47.060;15.460;2023-06-24T05:19:07;9.13;;;8.23;;
6860;SDS011;3469;47.060;15.460;2023-06-24T05:21:35;9.60;;;8.60;;
6860;SDS011;3469;47.060;15.460;2023-06-24T05:24:04;9.83;;;8.47;;
6860;SDS011;3469;47.060;15.460;2023-06-24T05:26:34;9.47;;;8.57;;
6860;SDS011;3469;47.060;15.460;2023-06-24T05:29:03;9.93;;;8.60;;
6860;SDS011;3469;47.060;15.460;2023-06-24T05:31:31;11.30;;;8.23;;
6860;SDS011;3469;47.060;15.460;2023-06-24T05:33:59;8.83;;;7.93;;
6860;SDS011;3469;47.060;15.460;2023-06-24T05:36:27;8.67;;;7.87;;
6860;SDS011;3469;47.060;15.460;2023-06-24T05:38:55;8.60;;;7.67;;
6860;SDS011;3469;47.060;15.460;2023-06-24T05:41:24;8.77;;;7.93;;
6860;SDS011;3469;47.060;15.460;2023-06-24T05:44:02;8.87;;;7.97;;
6860;SDS011;3469;47.060;15.460;2023-06-24T05:46:31;8.17;;;7.43;;
6860;SDS011;3469;47.060;15.460;2023-06-24T05:48:59;12.20;;;8.27;;
6860;SDS011;3469;47.060;15.460;2023-06-24T05:51:27;9.83;;;7.57;;
6860;SDS011;3469;47.060;15.460;2023-06-24T05:53:56;8.93;;;8.03;;
6860;SDS011;3469;47.060;15.460;2023-06-24T05:56:24;9.27;;;8.10;;
6860;SDS011;3469;47.060;15.460;2023-06-24T05:58:52;13.00;;;8.30;;
6860;SDS011;3469;47.060;15.460;2023-06-24T06:04:25;11.20;;;8.60;;
6860;SDS011;3469;47.060;15.460;2023-06-24T06:06:53;12.00;;;9.17;;
6860;SDS011;3469;47.060;15.460;2023-06-24T06:09:22;10.03;;;8.10;;
6860;SDS011;3469;47.060;15.460;2023-06-24T06:11:50;8.37;;;7.50;;
6860;SDS011;3469;47.060;15.460;2023-06-24T06:14:19;10.90;;;8.83;;
6860;SDS011;3469;47.060;15.460;2023-06-24T06:16:47;10.13;;;9.10;;
6860;SDS011;3469;47.060;15.460;2023-06-24T06:19:15;9.13;;;8.10;;
6860;SDS011;3469;47.060;15.460;2023-06-24T06:21:45;10.90;;;8.80;;
6860;SDS011;3469;47.060;15.460;2023-06-24T06:24:14;9.93;;;8.17;;
6860;SDS011;3469;47.060;15.460;2023-06-24T06:26:43;9.20;;;8.30;;
6860;SDS011;3469;47.060;15.460;2023-06-24T06:29:12;9.73;;;8.73;;
6860;SDS011;3469;47.060;15.460;2023-06-24T06:31:40;8.73;;;7.90;;
6860;SDS011;3469;47.060;15.460;2023-06-24T06:34:10;8.90;;;8.00;;
6860;SDS011;3469;47.060;15.460;2023-06-24T06:36:38;8.87;;;7.83;;
6860;SDS011;3469;47.060;15.460;2023-06-24T06:39:09;7.53;;;6.83;;
6860;SDS011;3469;47.060;15.460;2023-06-24T06:41:37;8.40;;;7.37;;
6860;SDS011;3469;47.060;15.460;2023-06-24T06:44:14;8.53;;;6.43;;
6860;SDS011;3469;47.060;15.460;2023-06-24T06:46:45;8.00;;;6.80;;
6860;SDS011;3469;47.060;15.460;2023-06-24T06:49:13;6.27;;;5.60;;
6860;SDS011;3469;47.060;15.460;2023-06-24T06:51:41;6.00;;;5.40;;
6860;SDS011;3469;47.060;15.460;2023-06-24T06:54:11;6.50;;;5.77;;
6860;SDS011;3469;47.060;15.460;2023-06-24T06:56:39;5.33;;;4.83;;
6860;SDS011;3469;47.060;15.460;2023-06-24T06:59:07;5.43;;;4.90;;
6860;SDS011;3469;47.060;15.460;2023-06-24T07:01:36;6.03;;;5.43;;
6860;SDS011;3469;47.060;15.460;2023-06-24T07:04:04;6.33;;;4.60;;
6860;SDS011;3469;47.060;15.460;2023-06-24T07:06:32;4.67;;;3.67;;
6860;SDS011;3469;47.060;15.460;2023-06-24T07:09:02;3.20;;;2.90;;
6860;SDS011;3469;47.060;15.460;2023-06-24T07:11:32;2.60;;;2.27;;
6860;SDS011;3469;47.060;15.460;2023-06-24T07:14:00;3.80;;;2.30;;
6860;SDS011;3469;47.060;15.460;2023-06-24T07:16:29;3.50;;;2.33;;
6860;SDS011;3469;47.060;15.460;2023-06-24T07:18:57;2.33;;;2.00;;
6860;SDS011;3469;47.060;15.460;2023-06-24T07:21:26;2.77;;;2.00;;
6860;SDS011;3469;47.060;15.460;2023-06-24T07:23:54;3.77;;;2.27;;
6860;SDS011;3469;47.060;15.460;2023-06-24T07:26:22;3.50;;;2.60;;
6860;SDS011;3469;47.060;15.460;2023-06-24T07:28:52;2.57;;;1.83;;
6860;SDS011;3469;47.060;15.460;2023-06-24T07:31:33;2.33;;;2.13;;
6860;SDS011;3469;47.060;15.460;2023-06-24T07:34:02;3.50;;;1.33;;
6860;SDS011;3469;47.060;15.460;2023-06-24T07:36:30;4.23;;;1.50;;
6860;SDS011;3469;47.060;15.460;2023-06-24T07:39:02;2.23;;;1.13;;
6860;SDS011;3469;47.060;15.460;2023-06-24T07:41:30;1.83;;;1.37;;
6860;SDS011;3469;47.060;15.460;2023-06-24T07:44:00;1.40;;;1.10;;
6860;SDS011;3469;47.060;15.460;2023-06-24T07:46:28;1.30;;;0.60;;
6860;SDS011;3469;47.060;15.460;2023-06-24T07:48:56;0.80;;;0.43;;
6860;SDS011;3469;47.060;15.460;2023-06-24T07:51:25;1.00;;;0.63;;
6860;SDS011;3469;47.060;15.460;2023-06-24T07:53:54;1.00;;;0.50;;
6860;SDS011;3469;47.060;15.460;2023-06-24T07:56:27;1.57;;;0.30;;
6860;SDS011;3469;47.060;15.460;2023-06-24T07:58:55;1.33;;;0.40;;
6860;SDS011;3469;47.060;15.460;2023-06-24T08:01:28;0.63;;;0.40;;
6860;SDS011;3469;47.060;15.460;2023-06-24T08:03:56;0.90;;;0.40;;
6860;SDS011;3469;47.060;15.460;2023-06-24T08:06:25;1.10;;;0.50;;
6860;SDS011;3469;47.060;15.460;2023-06-24T08:08:54;0.90;;;0.40;;
6860;SDS011;3469;47.060;15.460;2023-06-24T08:11:25;0.50;;;0.30;;
6860;SDS011;3469;47.060;15.460;2023-06-24T08:13:54;0.70;;;0.30;;
6860;SDS011;3469;47.060;15.460;2023-06-24T08:16:25;0.70;;;0.30;;
6860;SDS011;3469;47.060;15.460;2023-06-24T08:18:59;1.67;;;0.33;;
6860;SDS011;3469;47.060;15.460;2023-06-24T08:21:29;0.60;;;0.40;;
6860;SDS011;3469;47.060;15.460;2023-06-24T08:23:57;0.50;;;0.30;;
6860;SDS011;3469;47.060;15.460;2023-06-24T08:26:27;1.23;;;0.37;;
6860;SDS011;3469;47.060;15.460;2023-06-24T08:28:55;1.20;;;0.50;;
6860;SDS011;3469;47.060;15.460;2023-06-24T08:31:29;0.70;;;0.40;;
6860;SDS011;3469;47.060;15.460;2023-06-24T08:34:00;0.70;;;0.40;;
6860;SDS011;3469;47.060;15.460;2023-06-24T08:36:31;1.00;;;0.67;;
6860;SDS011;3469;47.060;15.460;2023-06-24T08:38:59;0.60;;;0.30;;
6860;SDS011;3469;47.060;15.460;2023-06-24T08:41:28;0.60;;;0.30;;
6860;SDS011;3469;47.060;15.460;2023-06-24T08:43:56;0.73;;;0.40;;
6860;SDS011;3469;47.060;15.460;2023-06-24T08:46:28;0.50;;;0.20;;
6860;SDS011;3469;47.060;15.460;2023-06-24T08:49:08;0.70;;;0.37;;
6860;SDS011;3469;47.060;15.460;2023-06-24T08:51:41;0.87;;;0.40;;
6860;SDS011;3469;47.060;15.460;2023-06-24T08:54:14;0.80;;;0.50;;
6860;SDS011;3469;47.060;15.460;2023-06-24T08:56:44;0.60;;;0.30;;
6860;SDS011;3469;47.060;15.460;2023-06-24T08:59:12;0.60;;;0.30;;
6860;SDS011;3469;47.060;15.460;2023-06-24T09:01:52;1.77;;;0.40;;
6860;SDS011;3469;47.060;15.460;2023-06-24T09:04:23;0.60;;;0.30;;
6860;SDS011;3469;47.060;15.460;2023-06-24T09:06:51;0.70;;;0.30;;
6860;SDS011;3469;47.060;15.460;2023-06-24T09:09:23;0.60;;;0.30;;
6860;SDS011;3469;47.060;15.460;2023-06-24T09:11:51;1.00;;;0.57;;
6860;SDS011;3469;47.060;15.460;2023-06-24T09:14:21;0.60;;;0.30;;
6860;SDS011;3469;47.060;15.460;2023-06-24T09:16:50;0.70;;;0.30;;
6860;SDS011;3469;47.060;15.460;2023-06-24T09:19:20;0.70;;;0.40;;
6860;SDS011;3469;47.060;15.460;2023-06-24T09:21:50;1.00;;;0.40;;
6860;SDS011;3469;47.060;15.460;2023-06-24T09:24:21;0.60;;;0.30;;
6860;SDS011;3469;47.060;15.460;2023-06-24T09:26:55;0.70;;;0.50;;
6860;SDS011;3469;47.060;15.460;2023-06-24T09:29:25;0.90;;;0.40;;
6860;SDS011;3469;47.060;15.460;2023-06-24T09:31:56;0.60;;;0.30;;
6860;SDS011;3469;47.060;15.460;2023-06-24T09:34:30;0.77;;;0.30;;
6860;SDS011;3469;47.060;15.460;2023-06-24T09:37:00;4.23;;;0.57;;
6860;SDS011;3469;47.060;15.460;2023-06-24T09:39:30;0.53;;;0.30;;
6860;SDS011;3469;47.060;15.460;2023-06-24T09:42:06;0.60;;;0.40;;
6860;SDS011;3469;47.060;15.460;2023-06-24T09:44:34;0.60;;;0.30;;
6860;SDS011;3469;47.060;15.460;2023-06-24T09:47:03;0.70;;;0.30;;
6860;SDS011;3469;47.060;15.460;2023-06-24T09:49:37;1.53;;;0.40;;
6860;SDS011;3469;47.060;15.460;2023-06-24T09:52:07;0.60;;;0.30;;
6860;SDS011;3469;47.060;15.460;2023-06-24T09:54:35;0.60;;;0.30;;
6860;SDS011;3469;47.060;15.460;2023-06-24T09:57:04;1.27;;;0.30;;
6860;SDS011;3469;47.060;15.460;2023-06-24T09:59:40;0.60;;;0.30;;
6860;SDS011;3469;47.060;15.460;2023-06-24T10:02:16;2.00;;;0.30;;
6860;SDS011;3469;47.060;15.460;2023-06-24T10:04:47;0.67;;;0.33;;
6860;SDS011;3469;47.060;15.460;2023-06-24T10:07:20;1.33;;;0.40;;
6860;SDS011;3469;47.060;15.460;2023-06-24T10:09:53;1.43;;;0.50;;
6860;SDS011;3469;47.060;15.460;2023-06-24T10:12:21;0.80;;;0.43;;
6860;SDS011;3469;47.060;15.460;2023-06-24T10:14:51;0.80;;;0.40;;
6860;SDS011;3469;47.060;15.460;2023-06-24T10:17:20;0.60;;;0.30;;
6860;SDS011;3469;47.060;15.460;2023-06-24T10:19:48;3.20;;;0.40;;
6860;SDS011;3469;47.060;15.460;2023-06-24T10:22:22;0.60;;;0.37;;
6860;SDS011;3469;47.060;15.460;2023-06-24T10:24:52;1.20;;;0.30;;
6860;SDS011;3469;47.060;15.460;2023-06-24T10:27:21;0.70;;;0.37;;
6860;SDS011;3469;47.060;15.460;2023-06-24T10:29:51;0.70;;;0.30;;
6860;SDS011;3469;47.060;15.460;2023-06-24T10:32:21;0.50;;;0.30;;
6860;SDS011;3469;47.060;15.460;2023-06-24T10:34:54;0.70;;;0.40;;
6860;SDS011;3469;47.060;15.460;2023-06-24T10:37:25;0.50;;;0.30;;
6860;SDS011;3469;47.060;15.460;2023-06-24T10:39:54;0.60;;;0.30;;
6860;SDS011;3469;47.060;15.460;2023-06-24T10:42:33;0.60;;;0.30;;
6860;SDS011;3469;47.060;15.460;2023-06-24T10:45:14;0.60;;;0.30;;
6860;SDS011;3469;47.060;15.460;2023-06-24T10:47:48;0.70;;;0.40;;
6860;SDS011;3469;47.060;15.460;2023-06-24T10:50:20;0.60;;;0.30;;
6860;SDS011;3469;47.060;15.460;2023-06-24T10:52:51;0.50;;;0.30;;
6860;SDS011;3469;47.060;15.460;2023-06-24T10:55:23;0.60;;;0.30;;
6860;SDS011;3469;47.060;15.460;2023-06-24T10:57:52;0.60;;;0.30;;
6860;SDS011;3469;47.060;15.460;2023-06-24T11:00:21;0.60;;;0.40;;
6860;SDS011;3469;47.060;15.460;2023-06-24T11:02:53;0.67;;;0.40;;
6860;SDS011;3469;47.060;15.460;2023-06-24T11:05:21;1.90;;;0.40;;
6860;SDS011;3469;47.060;15.460;2023-06-24T11:07:53;1.43;;;0.57;;
6860;SDS011;3469;47.060;15.460;2023-06-24T11:10:21;0.70;;;0.30;;
6860;SDS011;3469;47.060;15.460;2023-06-24T11:12:50;0.70;;;0.30;;
6860;SDS011;3469;47.060;15.460;2023-06-24T11:15:18;0.60;;;0.30;;
6860;SDS011;3469;47.060;15.460;2023-06-24T11:17:50;1.00;;;0.30;;
6860;SDS011;3469;47.060;15.460;2023-06-24T11:20:21;0.60;;;0.30;;
6860;SDS011;3469;47.060;15.460;2023-06-24T11:22:49;0.60;;;0.30;;
6860;SDS011;3469;47.060;15.460;2023-06-24T11:25:19;0.60;;;0.40;;
6860;SDS011;3469;47.060;15.460;2023-06-24T11:27:49;0.67;;;0.30;;
6860;SDS011;3469;47.060;15.460;2023-06-24T11:30:18;0.53;;;0.30;;
6860;SDS011;3469;47.060;15.460;2023-06-24T11:32:47;1.83;;;0.47;;
6860;SDS011;3469;47.060;15.460;2023-06-24T11:35:16;1.13;;;0.40;;
6860;SDS011;3469;47.060;15.460;2023-06-24T11:37:46;1.00;;;0.33;;
6860;SDS011;3469;47.060;15.460;2023-06-24T11:40:16;0.60;;;0.30;;
6860;SDS011;3469;47.060;15.460;2023-06-24T11:42:47;1.03;;;0.40;;
6860;SDS011;3469;47.060;15.460;2023-06-24T11:45:19;0.50;;;0.20;;
6860;SDS011;3469;47.060;15.460;2023-06-24T11:47:49;0.60;;;0.30;;
6860;SDS011;3469;47.060;15.460;2023-06-24T11:50:20;1.63;;;0.30;;
6860;SDS011;3469;47.060;15.460;2023-06-24T11:52:53;0.70;;;0.30;;
6860;SDS011;3469;47.060;15.460;2023-06-24T11:55:22;0.90;;;0.50;;
6860;SDS011;3469;47.060;15.460;2023-06-24T11:57:57;0.53;;;0.30;;
6860;SDS011;3469;47.060;15.460;2023-06-24T12:00:28;0.50;;;0.30;;
6860;SDS011;3469;47.060;15.460;2023-06-24T12:03:00;1.00;;;0.40;;
6860;SDS011;3469;47.060;15.460;2023-06-24T12:05:36;0.60;;;0.30;;
6860;SDS011;3469;47.060;15.460;2023-06-24T12:08:07;0.60;;;0.30;;
6860;SDS011;3469;47.060;15.460;2023-06-24T12:10:38;0.70;;;0.30;;
6860;SDS011;3469;47.060;15.460;2023-06-24T12:13:08;3.17;;;0.40;;
6860;SDS011;3469;47.060;15.460;2023-06-24T12:15:39;0.70;;;0.40;;
6860;SDS011;3469;47.060;15.460;2023-06-24T12:18:08;0.70;;;0.30;;
6860;SDS011;3469;47.060;15.460;2023-06-24T12:20:36;1.10;;;0.40;;
6860;SDS011;3469;47.060;15.460;2023-06-24T12:23:05;0.60;;;0.30;;
6860;SDS011;3469;47.060;15.460;2023-06-24T12:25:33;0.57;;;0.27;;
6860;SDS011;3469;47.060;15.460;2023-06-24T12:28:01;1.43;;;0.50;;
6860;SDS011;3469;47.060;15.460;2023-06-24T12:30:31;0.60;;;0.33;;
6860;SDS011;3469;47.060;15.460;2023-06-24T12:33:00;2.43;;;0.33;;
6860;SDS011;3469;47.060;15.460;2023-06-24T12:35:29;0.50;;;0.30;;
6860;SDS011;3469;47.060;15.460;2023-06-24T12:37:57;0.50;;;0.30;;
6860;SDS011;3469;47.060;15.460;2023-06-24T12:40:26;0.50;;;0.30;;
6860;SDS011;3469;47.060;15.460;2023-06-24T12:42:54;0.60;;;0.30;;
6860;SDS011;3469;47.060;15.460;2023-06-24T12:45:24;0.70;;;0.30;;
6860;SDS011;3469;47.060;15.460;2023-06-24T12:47:54;0.90;;;0.40;;
6860;SDS011;3469;47.060;15.460;2023-06-24T12:50:22;0.60;;;0.40;;
6860;SDS011;3469;47.060;15.460;2023-06-24T12:52:50;0.77;;;0.40;;
6860;SDS011;3469;47.060;15.460;2023-06-24T12:55:18;0.90;;;0.40;;
6860;SDS011;3469;47.060;15.460;2023-06-24T12:57:46;0.60;;;0.40;;
6860;SDS011;3469;47.060;15.460;2023-06-24T13:00:15;0.90;;;0.63;;
6860;SDS011;3469;47.060;15.460;2023-06-24T13:02:44;0.60;;;0.30;;
6860;SDS011;3469;47.060;15.460;2023-06-24T13:05:14;0.70;;;0.40;;
6860;SDS011;3469;47.060;15.460;2023-06-24T13:07:42;0.80;;;0.50;;
6860;SDS011;3469;47.060;15.460;2023-06-24T13:10:10;0.63;;;0.30;;
6860;SDS011;3469;47.060;15.460;2023-06-24T13:12:38;0.80;;;0.50;;
6860;SDS011;3469;47.060;15.460;2023-06-24T13:15:07;1.00;;;0.50;;
6860;SDS011;3469;47.060;15.460;2023-06-24T13:17:37;0.60;;;0.40;;
6860;SDS011;3469;47.060;15.460;2023-06-24T13:20:06;0.60;;;0.30;;
6860;SDS011;3469;47.060;15.460;2023-06-24T13:22:36;0.63;;;0.40;;
6860;SDS011;3469;47.060;15.460;2023-06-24T13:25:05;0.63;;;0.30;;
6860;SDS011;3469;47.060;15.460;2023-06-24T13:27:34;0.63;;;0.33;;
6860;SDS011;3469;47.060;15.460;2023-06-24T13:30:07;1.20;;;0.70;;
6860;SDS011;3469;47.060;15.460;2023-06-24T13:32:36;0.60;;;0.30;;
6860;SDS011;3469;47.060;15.460;2023-06-24T13:35:04;0.70;;;0.50;;
6860;SDS011;3469;47.060;15.460;2023-06-24T13:37:34;0.80;;;0.40;;
6860;SDS011;3469;47.060;15.460;2023-06-24T13:40:04;0.87;;;0.70;;
6860;SDS011;3469;47.060;15.460;2023-06-24T13:42:36;0.90;;;0.50;;
6860;SDS011;3469;47.060;15.460;2023-06-24T13:45:05;0.90;;;0.60;;
6860;SDS011;3469;47.060;15.460;2023-06-24T13:47:34;1.47;;;1.10;;
6860;SDS011;3469;47.060;15.460;2023-06-24T13:50:02;1.10;;;0.70;;
6860;SDS011;3469;47.060;15.460;2023-06-24T13:52:30;0.83;;;0.50;;
6860;SDS011;3469;47.060;15.460;2023-06-24T13:54:58;1.00;;;0.50;;
6860;SDS011;3469;47.060;15.460;2023-06-24T13:57:28;0.67;;;0.40;;
6860;SDS011;3469;47.060;15.460;2023-06-24T13:59:56;0.90;;;0.50;;
6860;SDS011;3469;47.060;15.460;2023-06-24T14:02:25;1.07;;;0.53;;
6860;SDS011;3469;47.060;15.460;2023-06-24T14:04:53;0.97;;;0.50;;
6860;SDS011;3469;47.060;15.460;2023-06-24T14:07:21;0.80;;;0.50;;
6860;SDS011;3469;47.060;15.460;2023-06-24T14:09:50;1.00;;;0.63;;
6860;SDS011;3469;47.060;15.460;2023-06-24T14:12:19;2.60;;;0.80;;
6860;SDS011;3469;47.060;15.460;2023-06-24T14:14:49;0.80;;;0.50;;
6860;SDS011;3469;47.060;15.460;2023-06-24T14:17:17;1.03;;;0.60;;
6860;SDS011;3469;47.060;15.460;2023-06-24T14:19:45;1.87;;;0.70;;
6860;SDS011;3469;47.060;15.460;2023-06-24T14:22:14;1.13;;;0.70;;
6860;SDS011;3469;47.060;15.460;2023-06-24T14:24:44;0.70;;;0.50;;
6860;SDS011;3469;47.060;15.460;2023-06-24T14:27:12;1.37;;;0.80;;
6860;SDS011;3469;47.060;15.460;2023-06-24T14:29:40;0.77;;;0.53;;
6860;SDS011;3469;47.060;15.460;2023-06-24T14:32:10;1.07;;;0.60;;
6860;SDS011;3469;47.060;15.460;2023-06-24T14:34:38;0.80;;;0.50;;
6860;SDS011;3469;47.060;15.460;2023-06-24T14:37:06;1.67;;;0.83;;
6860;SDS011;3469;47.060;15.460;2023-06-24T14:39:34;1.50;;;0.80;;
6860;SDS011;3469;47.060;15.460;2023-06-24T14:42:03;0.83;;;0.50;;
6860;SDS011;3469;47.060;15.460;2023-06-24T14:44:31;1.30;;;0.97;;
6860;SDS011;3469;47.060;15.460;2023-06-24T14:46:59;1.10;;;0.70;;
6860;SDS011;3469;47.060;15.460;2023-06-24T14:49:29;0.60;;;0.40;;
6860;SDS011;3469;47.060;15.460;2023-06-24T14:51:58;0.70;;;0.53;;
6860;SDS011;3469;47.060;15.460;2023-06-24T14:54:26;1.03;;;0.60;;
6860;SDS011;3469;47.060;15.460;2023-06-24T14:56:54;0.93;;;0.50;;
6860;SDS011;3469;47.060;15.460;2023-06-24T14:59:22;0.67;;;0.40;;
6860;SDS011;3469;47.060;15.460;2023-06-24T15:01:51;0.90;;;0.43;;
6860;SDS011;3469;47.060;15.460;2023-06-24T15:04:19;1.27;;;0.80;;
6860;SDS011;3469;47.060;15.460;2023-06-24T15:06:50;0.67;;;0.40;;
6860;SDS011;3469;47.060;15.460;2023-06-24T15:09:19;0.60;;;0.40;;
6860;SDS011;3469;47.060;15.460;2023-06-24T15:11:47;1.53;;;0.40;;